createdAt,value
2018-06-13T00:01:03.446Z,15.60
2018-06-13T00:03:32.573Z,15.60
2018-06-13T00:06:01.155Z,15.60
2018-06-13T00:08:29.718Z,15.60
2018-06-13T00:10:58.273Z,15.60
2018-06-13T00:13:26.806Z,15.60
2018-06-13T00:15:55.354Z,15.60
2018-06-13T00:18:24.037Z,15.60
2018-06-13T00:20:53.939Z,15.60
2018-06-13T00:23:29.101Z,15.60
2018-06-13T00:25:57.673Z,15.50
2018-06-13T00:28:26.209Z,15.50
2018-06-13T00:30:54.757Z,15.50
2018-06-13T00:33:23.285Z,15.40
2018-06-13T00:35:51.854Z,15.40
2018-06-13T00:38:21.546Z,15.50
2018-06-13T00:40:50.097Z,15.50
2018-06-13T00:43:18.634Z,15.40
2018-06-13T00:45:48.249Z,15.50
2018-06-13T00:48:17.397Z,15.60
2018-06-13T00:50:45.985Z,15.60
2018-06-13T00:53:14.505Z,15.60
2018-06-13T00:55:54.281Z,15.60
2018-06-13T00:58:23.517Z,15.50
2018-06-13T01:00:52.074Z,15.60
2018-06-13T01:03:20.639Z,15.60
2018-06-13T01:08:17.377Z,15.60
2018-06-13T01:10:45.922Z,15.60
2018-06-13T01:13:14.450Z,15.40
2018-06-13T01:15:43.038Z,15.40
2018-06-13T01:18:11.618Z,15.40
2018-06-13T01:20:40.178Z,15.30
2018-06-13T01:23:08.689Z,15.20
2018-06-13T01:25:37.257Z,15.20
2018-06-13T01:28:05.801Z,15.10
2018-06-13T01:30:34.414Z,15.10
2018-06-13T01:33:03.010Z,15.20
2018-06-13T01:35:31.610Z,15.10
2018-06-13T01:38:00.173Z,15.20
2018-06-13T01:40:30.232Z,15.20
2018-06-13T01:42:58.786Z,15.10
2018-06-13T01:45:27.405Z,15.00
2018-06-13T01:50:24.472Z,14.80
2018-06-13T01:55:32.194Z,14.70
2018-06-13T01:58:00.760Z,14.70
2018-06-13T02:02:57.584Z,14.80
2018-06-13T02:05:26.140Z,14.70
2018-06-13T02:07:54.727Z,14.60
2018-06-13T02:10:23.275Z,14.60
2018-06-13T02:15:20.068Z,14.60
2018-06-13T02:17:48.642Z,14.60
2018-06-13T02:20:17.838Z,14.70
2018-06-13T02:22:46.438Z,14.70
2018-06-13T02:25:15.024Z,14.60
2018-06-13T02:27:43.634Z,14.50
2018-06-13T02:30:12.190Z,14.50
2018-06-13T02:32:42.054Z,14.50
2018-06-13T02:35:10.617Z,14.50
2018-06-13T02:37:39.225Z,14.50
2018-06-13T02:40:08.532Z,14.40
2018-06-13T02:42:37.106Z,14.50
2018-06-13T02:45:05.669Z,14.60
2018-06-13T02:47:34.242Z,14.60
2018-06-13T02:50:02.809Z,14.50
2018-06-13T02:52:31.392Z,14.50
2018-06-13T02:54:59.971Z,14.50
2018-06-13T02:57:28.591Z,14.40
2018-06-13T02:59:57.127Z,14.40
2018-06-13T03:04:53.900Z,14.30
2018-06-13T03:07:23.118Z,14.40
2018-06-13T03:09:52.189Z,14.40
2018-06-13T03:12:20.796Z,14.40
2018-06-13T03:14:49.377Z,14.30
2018-06-13T03:17:18.476Z,14.30
2018-06-13T03:19:47.058Z,14.20
2018-06-13T03:22:15.642Z,14.10
2018-06-13T03:24:45.418Z,14.10
2018-06-13T03:29:42.188Z,14.00
2018-06-13T03:34:39.629Z,14.00
2018-06-13T03:37:08.247Z,14.00
2018-06-13T03:39:37.452Z,14.10
2018-06-13T03:42:06.060Z,14.20
2018-06-13T03:44:34.617Z,14.20
2018-06-13T03:49:31.373Z,14.20
2018-06-13T03:54:28.714Z,14.20
2018-06-13T03:56:57.328Z,14.30
2018-06-13T03:59:26.526Z,14.20
2018-06-13T04:04:23.353Z,14.20
2018-06-13T04:06:51.938Z,14.20
2018-06-13T04:09:20.509Z,14.20
2018-06-13T04:11:49.058Z,14.20
2018-06-13T04:14:17.649Z,14.20
2018-06-13T04:16:46.202Z,14.20
2018-06-13T04:21:43.706Z,14.40
2018-06-13T04:24:12.285Z,14.40
2018-06-13T04:26:41.390Z,14.50
2018-06-13T04:29:09.992Z,14.50
2018-06-13T04:31:38.625Z,14.50
2018-06-13T04:34:07.228Z,14.50
2018-06-13T04:41:35.803Z,14.70
2018-06-13T04:44:04.462Z,14.80
2018-06-13T04:46:33.664Z,14.80
2018-06-13T04:49:02.251Z,14.90
2018-06-13T04:51:32.005Z,15.00
2018-06-13T04:54:00.592Z,15.20
2018-06-13T04:56:29.154Z,15.30
2018-06-13T04:58:57.721Z,15.40
2018-06-13T05:01:26.258Z,15.40
2018-06-13T05:06:26.429Z,15.20
2018-06-13T05:08:55.065Z,15.30
2018-06-13T05:11:23.666Z,15.60
2018-06-13T05:16:20.610Z,15.10
2018-06-13T05:18:49.210Z,14.90
2018-06-13T05:23:46.922Z,14.80
2018-06-13T05:26:16.017Z,14.80
2018-06-13T05:28:44.665Z,14.80
2018-06-13T05:31:13.233Z,14.80
2018-06-13T05:33:41.904Z,14.80
2018-06-13T05:36:10.525Z,14.80
2018-06-13T05:38:39.110Z,14.80
2018-06-13T05:41:07.662Z,14.80
2018-06-13T05:43:38.825Z,14.90
2018-06-13T05:46:10.095Z,14.90
2018-06-13T05:48:40.870Z,15.10
2018-06-13T05:51:09.481Z,15.20
2018-06-13T05:53:38.643Z,15.20
2018-06-13T05:56:08.979Z,15.40
2018-06-13T05:58:37.737Z,15.50
2018-06-13T06:01:07.347Z,15.70
2018-06-13T06:03:35.949Z,16.00
2018-06-13T06:06:05.969Z,16.00
2018-06-13T06:08:38.172Z,15.70
2018-06-13T06:11:07.559Z,15.60
2018-06-13T06:13:36.750Z,15.70
2018-06-13T06:16:06.473Z,15.90
2018-06-13T06:18:35.133Z,15.60
2018-06-13T06:21:07.748Z,15.60
2018-06-13T06:23:36.523Z,15.90
2018-06-13T06:26:05.422Z,15.90
2018-06-13T06:28:34.023Z,16.00
2018-06-13T06:31:02.609Z,15.90
2018-06-13T06:33:32.258Z,16.10
2018-06-13T06:38:36.272Z,16.40
2018-06-13T06:41:06.597Z,16.30
2018-06-13T06:43:40.707Z,16.10
2018-06-13T06:46:09.447Z,16.00
2018-06-13T06:48:38.133Z,15.80
2018-06-13T06:51:06.921Z,15.50
2018-06-13T06:53:35.540Z,15.80
2018-06-13T06:56:04.498Z,16.30
2018-06-13T06:58:40.187Z,16.70
2018-06-13T07:01:11.191Z,16.70
2018-06-13T07:03:40.191Z,16.70
2018-06-13T07:06:09.530Z,16.90
2018-06-13T07:08:40.278Z,16.80
2018-06-13T07:13:37.196Z,16.70
2018-06-13T07:16:05.903Z,16.90
2018-06-13T07:18:34.542Z,17.20
2018-06-13T07:21:03.145Z,17.50
2018-06-13T07:23:31.831Z,17.70
2018-06-13T07:26:01.250Z,17.80
2018-06-13T07:28:29.834Z,17.20
2018-06-13T07:30:59.135Z,17.00
2018-06-13T07:33:27.770Z,16.80
2018-06-13T07:38:24.760Z,17.10
2018-06-13T07:40:53.481Z,17.10
2018-06-13T07:43:22.053Z,17.40
2018-06-13T07:45:50.626Z,17.20
2018-06-13T07:48:19.517Z,17.40
2018-06-13T07:50:50.234Z,17.50
2018-06-13T07:53:18.793Z,17.90
2018-06-13T07:55:47.559Z,17.80
2018-06-13T07:58:20.473Z,17.60
2018-06-13T08:00:52.044Z,17.60
2018-06-13T08:03:20.747Z,17.80
2018-06-13T08:05:54.400Z,17.80
2018-06-13T08:08:23.275Z,17.70
2018-06-13T08:10:51.893Z,18.00
2018-06-13T08:15:48.794Z,17.50
2018-06-13T08:18:17.375Z,17.60
2018-06-13T08:20:46.228Z,18.00
2018-06-13T08:25:43.137Z,17.40
2018-06-13T08:28:11.689Z,17.30
2018-06-13T08:30:40.290Z,17.50
2018-06-13T08:33:08.868Z,17.90
2018-06-13T08:35:38.279Z,18.30
2018-06-13T08:38:11.501Z,18.60
2018-06-13T08:40:40.234Z,18.80
2018-06-13T08:45:37.512Z,18.10
2018-06-13T08:50:34.396Z,17.20
2018-06-13T08:53:03.050Z,17.10
2018-06-13T08:58:03.758Z,16.50
2018-06-13T09:00:35.150Z,16.30
2018-06-13T09:03:03.862Z,16.30
2018-06-13T09:05:33.142Z,16.40
2018-06-13T09:10:30.001Z,16.10
2018-06-13T09:15:26.826Z,16.30
2018-06-13T09:17:55.503Z,16.50
2018-06-13T09:20:24.094Z,16.60
2018-06-13T09:22:52.788Z,16.60
2018-06-13T09:25:21.469Z,16.60
2018-06-13T09:27:50.089Z,16.60
2018-06-13T09:37:43.674Z,16.70
2018-06-13T09:40:12.238Z,16.60
2018-06-13T09:42:40.961Z,16.70
2018-06-13T09:45:09.715Z,16.90
2018-06-13T09:47:38.414Z,16.80
2018-06-13T09:50:07.011Z,16.90
2018-06-13T09:52:35.749Z,16.90
2018-06-13T09:55:04.429Z,16.80
2018-06-13T10:00:07.269Z,16.90
2018-06-13T10:02:37.119Z,17.00
2018-06-13T10:05:07.258Z,17.10
2018-06-13T10:10:04.876Z,16.90
2018-06-13T10:12:34.115Z,17.20
2018-06-13T10:15:03.335Z,17.50
2018-06-13T10:17:31.950Z,17.80
2018-06-13T10:20:00.508Z,17.90
2018-06-13T10:24:57.374Z,18.20
2018-06-13T10:30:00.209Z,18.90
2018-06-13T10:32:29.618Z,19.40
2018-06-13T10:34:58.170Z,19.30
2018-06-13T10:37:26.780Z,19.30
2018-06-13T10:39:55.366Z,18.70
2018-06-13T10:42:24.029Z,18.40
2018-06-13T10:44:52.581Z,18.70
2018-06-13T10:47:21.173Z,18.70
2018-06-13T10:49:50.810Z,18.20
2018-06-13T10:52:20.345Z,17.80
2018-06-13T10:54:48.947Z,17.50
2018-06-13T10:57:17.545Z,17.50
2018-06-13T10:59:51.994Z,17.40
2018-06-13T11:02:20.858Z,17.10
2018-06-13T11:04:49.580Z,17.20
2018-06-13T11:07:18.126Z,17.10
2018-06-13T11:09:46.694Z,17.00
2018-06-13T11:12:15.877Z,16.90
2018-06-13T11:14:44.560Z,16.80
2018-06-13T11:17:13.176Z,16.60
2018-06-13T11:19:41.775Z,16.40
2018-06-13T11:22:15.590Z,16.20
2018-06-13T11:24:45.059Z,16.10
2018-06-13T11:27:13.665Z,16.20
2018-06-13T11:29:42.242Z,16.40
2018-06-13T11:32:10.907Z,16.40
2018-06-13T11:34:39.490Z,16.50
2018-06-13T11:37:08.148Z,16.60
2018-06-13T11:39:36.817Z,16.80
2018-06-13T11:42:05.397Z,17.30
2018-06-13T11:44:34.664Z,17.50
2018-06-13T11:47:03.229Z,17.70
2018-06-13T11:49:31.834Z,17.80
2018-06-13T11:52:00.603Z,17.60
2018-06-13T11:54:29.781Z,17.60
2018-06-13T11:56:59.069Z,17.80
2018-06-13T11:59:27.650Z,18.00
2018-06-13T12:01:56.236Z,18.30
2018-06-13T12:09:23.660Z,17.80
2018-06-13T12:11:52.895Z,17.50
2018-06-13T12:14:21.459Z,17.60
2018-06-13T12:16:50.786Z,17.50
2018-06-13T12:19:19.384Z,17.30
2018-06-13T12:24:16.200Z,17.60
2018-06-13T12:26:45.281Z,17.80
2018-06-13T12:29:14.121Z,17.90
2018-06-13T12:36:40.829Z,18.30
2018-06-13T12:39:11.104Z,18.50
2018-06-13T12:41:39.669Z,18.50
2018-06-13T12:44:09.857Z,18.70
2018-06-13T12:46:38.475Z,18.80
2018-06-13T12:49:07.295Z,18.90
2018-06-13T12:56:33.275Z,19.00
2018-06-13T13:01:30.143Z,19.30
2018-06-13T13:03:58.745Z,19.30
2018-06-13T13:06:27.358Z,19.50
2018-06-13T13:08:55.950Z,19.20
2018-06-13T13:11:24.500Z,19.10
2018-06-13T13:13:53.150Z,19.00
2018-06-13T13:16:21.798Z,19.00
2018-06-13T13:18:50.533Z,18.90
2018-06-13T13:23:47.361Z,18.50
2018-06-13T13:26:15.919Z,18.60
2018-06-13T13:28:44.482Z,18.40
2018-06-13T13:31:13.143Z,18.50
2018-06-13T13:36:09.978Z,18.80
2018-06-13T13:38:38.628Z,18.90
2018-06-13T13:41:07.607Z,19.10
2018-06-13T13:43:36.190Z,19.00
2018-06-13T13:46:05.307Z,18.90
2018-06-13T13:48:33.849Z,18.50
2018-06-13T13:51:03.114Z,18.60
2018-06-13T13:53:31.740Z,18.50
2018-06-13T13:58:28.632Z,18.40
2018-06-13T14:00:57.453Z,18.40
2018-06-13T14:03:26.006Z,18.50
2018-06-13T14:05:54.612Z,18.30
2018-06-13T14:08:23.173Z,18.00
2018-06-13T14:10:51.788Z,17.90
2018-06-13T14:13:20.361Z,18.00
2018-06-13T14:15:48.955Z,17.90
2018-06-13T14:18:17.510Z,17.90
2018-06-13T14:20:46.086Z,18.00
2018-06-13T14:23:14.653Z,18.00
2018-06-13T14:30:39.768Z,18.00
2018-06-13T14:33:08.354Z,17.90
2018-06-13T14:35:36.973Z,17.80
2018-06-13T14:38:05.561Z,17.70
2018-06-13T14:40:35.330Z,17.70
2018-06-13T14:43:03.978Z,17.60
2018-06-13T14:48:01.432Z,18.00
2018-06-13T14:50:30.009Z,18.20
2018-06-13T14:55:26.846Z,18.30
2018-06-13T14:57:56.692Z,18.10
2018-06-13T15:00:25.304Z,18.40
2018-06-13T15:02:53.849Z,18.20
2018-06-13T15:07:51.187Z,17.90
2018-06-13T15:10:19.802Z,17.70
2018-06-13T15:15:17.389Z,17.70
2018-06-13T15:17:45.970Z,17.70
2018-06-13T15:20:14.549Z,17.50
2018-06-13T15:25:11.373Z,17.70
2018-06-13T15:27:40.596Z,17.80
2018-06-13T15:30:09.207Z,17.70
2018-06-13T15:32:38.885Z,17.80
2018-06-13T15:35:07.485Z,17.80
2018-06-13T15:37:36.077Z,17.80
2018-06-13T15:40:04.689Z,17.90
2018-06-13T15:42:33.276Z,18.10
2018-06-13T15:45:01.852Z,18.00
2018-06-13T15:47:30.444Z,18.10
2018-06-13T15:49:58.990Z,18.20
2018-06-13T15:52:27.583Z,18.10
2018-06-13T15:54:56.153Z,17.90
2018-06-13T15:57:24.759Z,17.80
2018-06-13T15:59:53.322Z,17.70
2018-06-13T16:02:21.992Z,17.60
2018-06-13T16:04:51.005Z,17.60
2018-06-13T16:07:19.651Z,17.50
2018-06-13T16:09:48.351Z,17.60
2018-06-13T16:12:17.531Z,17.60
2018-06-13T16:14:46.809Z,17.70
2018-06-13T16:17:16.109Z,17.80
2018-06-13T16:19:44.665Z,17.90
2018-06-13T16:22:13.238Z,17.80
2018-06-13T16:24:42.606Z,17.80
2018-06-13T16:27:11.341Z,17.80
2018-06-13T16:29:39.979Z,17.90
2018-06-13T16:32:08.678Z,17.90
2018-06-13T16:34:37.369Z,17.80
2018-06-13T16:37:06.152Z,17.90
2018-06-13T16:39:34.746Z,18.00
2018-06-13T16:42:03.367Z,18.00
2018-06-13T16:47:00.519Z,17.90
2018-06-13T16:49:29.071Z,17.80
2018-06-13T16:51:58.492Z,17.80
2018-06-13T16:54:38.229Z,17.60
2018-06-13T16:57:06.822Z,17.50
2018-06-13T16:59:35.953Z,17.50
2018-06-13T17:04:33.090Z,17.50
2018-06-13T17:07:02.334Z,17.50
2018-06-13T17:09:30.920Z,17.40
2018-06-13T17:12:00.069Z,17.40
2018-06-13T17:14:29.247Z,17.40
2018-06-13T17:16:57.849Z,17.50
2018-06-13T17:19:26.413Z,17.50
2018-06-13T17:21:55.635Z,17.60
2018-06-13T17:24:25.378Z,17.70
2018-06-13T17:26:54.006Z,17.60
2018-06-13T17:29:22.588Z,17.50
2018-06-13T17:31:51.193Z,17.50
2018-06-13T17:34:19.773Z,17.30
2018-06-13T17:36:48.422Z,17.30
2018-06-13T17:39:16.992Z,17.30
2018-06-13T17:44:13.977Z,17.40
2018-06-13T17:46:42.579Z,17.50
2018-06-13T17:49:11.282Z,17.40
2018-06-13T17:51:39.848Z,17.40
2018-06-13T17:54:08.519Z,17.10
2018-06-13T17:56:37.086Z,17.00
2018-06-13T18:04:02.234Z,17.20
2018-06-13T18:06:30.858Z,17.10
2018-06-13T18:08:59.640Z,17.00
2018-06-13T18:11:28.224Z,17.10
2018-06-13T18:13:56.806Z,17.10
2018-06-13T18:16:25.382Z,17.00
2018-06-13T18:18:53.978Z,16.90
2018-06-13T18:21:23.211Z,16.90
2018-06-13T18:23:51.842Z,16.80
2018-06-13T18:26:20.401Z,16.70
2018-06-13T18:28:49.013Z,16.70
2018-06-13T18:31:17.588Z,16.60
2018-06-13T18:33:46.193Z,16.60
2018-06-13T18:36:15.379Z,16.60
2018-06-13T18:38:44.068Z,16.50
2018-06-13T18:41:12.655Z,16.60
2018-06-13T18:43:41.354Z,16.60
2018-06-13T18:46:11.588Z,16.60
2018-06-13T18:48:40.182Z,16.60
2018-06-13T18:51:08.750Z,16.50
2018-06-13T18:53:37.317Z,16.40
2018-06-13T18:56:06.023Z,16.40
2018-06-13T18:58:34.635Z,16.40
2018-06-13T19:01:03.191Z,16.40
2018-06-13T19:03:31.930Z,16.40
2018-06-13T19:06:01.026Z,16.40
2018-06-13T19:08:30.116Z,16.30
2018-06-13T19:10:59.197Z,16.30
2018-06-13T19:13:27.762Z,16.30
2018-06-13T19:15:56.317Z,16.20
2018-06-13T19:18:24.897Z,16.10
2018-06-13T19:20:53.463Z,16.10
2018-06-13T19:25:51.006Z,16.10
2018-06-13T19:28:19.624Z,16.10
2018-06-13T19:30:48.258Z,16.10
2018-06-13T19:33:17.531Z,16.00
2018-06-13T19:35:46.862Z,16.00
2018-06-13T19:38:15.433Z,16.00
2018-06-13T19:40:44.306Z,15.90
2018-06-13T19:43:18.209Z,15.90
2018-06-13T19:45:46.792Z,15.90
2018-06-13T19:48:20.667Z,15.90
2018-06-13T19:50:49.187Z,15.90
2018-06-13T19:53:22.993Z,15.80
2018-06-13T19:55:56.841Z,15.80
2018-06-13T19:58:25.410Z,15.80
2018-06-13T20:00:53.974Z,15.90
2018-06-13T20:03:27.873Z,15.80
2018-06-13T20:08:24.699Z,15.60
2018-06-13T20:10:53.273Z,15.70
2018-06-13T20:13:27.293Z,15.60
2018-06-13T20:16:01.285Z,15.50
2018-06-13T20:18:35.759Z,15.50
2018-06-13T20:21:05.032Z,15.50
2018-06-13T20:23:35.119Z,15.40
2018-06-13T20:26:09.232Z,15.20
2018-06-13T20:28:43.281Z,15.20
2018-06-13T20:31:14.868Z,15.30
2018-06-13T20:33:44.075Z,15.30
2018-06-13T20:36:12.677Z,15.30
2018-06-13T20:38:41.371Z,15.30
2018-06-13T20:41:09.943Z,15.30
2018-06-13T20:43:38.865Z,15.30
2018-06-13T20:46:07.518Z,15.30
2018-06-13T20:48:36.079Z,15.20
2018-06-13T20:51:05.014Z,15.30
2018-06-13T20:53:33.543Z,15.30
2018-06-13T20:56:02.518Z,15.20
2018-06-13T20:58:31.100Z,15.20
2018-06-13T21:01:00.683Z,15.20
2018-06-13T21:03:29.241Z,15.20
2018-06-13T21:05:57.844Z,15.10
2018-06-13T21:08:26.441Z,15.10
2018-06-13T21:10:55.043Z,15.10
2018-06-13T21:13:23.749Z,15.20
2018-06-13T21:15:52.331Z,15.20
2018-06-13T21:18:20.877Z,15.20
2018-06-13T21:20:50.313Z,15.20
2018-06-13T21:23:19.890Z,15.20
2018-06-13T21:25:48.488Z,15.10
2018-06-13T21:28:17.992Z,15.00
2018-06-13T21:30:46.714Z,14.90
2018-06-13T21:33:15.841Z,14.90
2018-06-13T21:35:44.417Z,15.00
2018-06-13T21:38:12.997Z,15.10
2018-06-13T21:40:41.647Z,15.00
2018-06-13T21:43:10.230Z,15.00
2018-06-13T21:45:40.514Z,15.00
2018-06-13T21:48:09.077Z,15.00
2018-06-13T21:50:38.273Z,15.00
2018-06-13T21:55:35.075Z,15.00
2018-06-13T21:58:03.767Z,14.90
2018-06-13T22:00:32.371Z,14.90
2018-06-13T22:03:00.961Z,15.00
2018-06-13T22:05:29.541Z,15.00
2018-06-13T22:07:58.115Z,15.00
2018-06-13T22:10:27.400Z,15.00
2018-06-13T22:12:55.964Z,15.10
2018-06-13T22:15:26.306Z,15.00
2018-06-13T22:17:57.570Z,14.90
2018-06-13T22:20:27.469Z,14.90
2018-06-13T22:22:56.282Z,14.90
2018-06-13T22:25:24.859Z,15.00
2018-06-13T22:27:53.443Z,15.00
2018-06-13T22:30:22.606Z,14.90
2018-06-13T22:32:51.189Z,14.90
2018-06-13T22:35:19.757Z,14.90
2018-06-13T22:42:51.227Z,14.90
2018-06-13T22:45:20.529Z,14.90
2018-06-13T22:47:49.124Z,14.80
2018-06-13T22:50:17.721Z,14.90
2018-06-13T22:52:46.349Z,14.80
2018-06-13T22:55:15.170Z,14.80
2018-06-13T22:57:43.766Z,14.80
2018-06-13T23:02:41.635Z,14.70
2018-06-13T23:05:10.182Z,14.60
2018-06-13T23:07:38.765Z,14.50
2018-06-13T23:10:07.327Z,14.50
2018-06-13T23:12:35.934Z,14.50
2018-06-13T23:15:04.653Z,14.60
2018-06-13T23:17:33.898Z,14.50
2018-06-13T23:20:02.469Z,14.50
2018-06-13T23:24:59.226Z,14.60
2018-06-13T23:29:56.003Z,14.40
2018-06-13T23:32:24.584Z,14.30
2018-06-13T23:34:53.161Z,14.20
2018-06-13T23:37:21.776Z,14.20
2018-06-13T23:39:50.318Z,14.30
2018-06-13T23:44:47.109Z,14.30
2018-06-13T23:47:15.697Z,14.20
2018-06-13T23:49:44.241Z,14.30
2018-06-13T23:52:12.801Z,14.40
2018-06-13T23:54:41.342Z,14.50
2018-06-13T23:57:09.897Z,14.50
